Weather observations for the past three days for
Montauk, Montauk Airport
Metric (Imperial)
Date Time (edt) Wind (kph) Vis. (km) Weather Sky Cond. Temperature (ºC) Relative Humidity Wind Chill (°C) Heat Index (°C) Pressure Precipitation (cm)
Air Dwpt 6 hour altimeter (cm) sea level (mb) 1 hr 3 hr 6 hr
Max. Min.
07 16:54 W 11 G 28 0.00 NULL NULL 15.6 2.2 41% 75.54 1007.0
07 15:54 W 15 0.00 NULL NULL 16.1 -0.6 32% 75.54 1007.0
07 14:54 W 15 0.00 NULL NULL 15.6 -0.6 33% 75.59 1007.6
07 13:54 W 15 G 31 0.00 NULL NULL 14.4 0 15 9.4 38% 75.64 1008.3 0.03
07 12:54 W 15 0.00 NULL NULL 13.3 2.8 49% 75.69 1009.0
07 11:54 W 13 0.00 NULL NULL 12.8 3.3 53% 75.72 1009.5
07 10:54 W 11 0.00 NULL NULL 12.2 6.1 67% 75.74 1009.8 0.03
07 09:54 NW 11 0.00 NULL NULL 10.6 7.8 83% 75.74 1009.6
07 08:54 NW 11 0.00 NULL NULL 9.4 8.3 93% 8 75.74 1009.8 0.03
07 07:54 NW 9 0.00 NULL NULL 9.4 8.9 12.8 9.4 97% 8 75.72 1009.3 0.48
07 06:54 NW 9 0.00 NULL NULL 10 8.9 93% 9 75.69 1009.1
07 05:54 NW 7 0.00 NULL NULL 10 8.9 93% 9 75.64 1008.2 0.05
07 04:54 NW 7 0.00 NULL NULL 10 9.4 96% 9 75.64 1008.3 0.3 0.43
07 03:54 NW 13 0.00 NULL NULL 10.6 9.4 92% 75.57 1007.5 0.08
07 02:54 W 6 0.00 NULL NULL 12.2 11.7 97% 75.54 1006.9 0.05
07 01:54 W 7 0.00 NULL NULL 12.2 11.1 13.3 11.7 93% 75.54 1007.2
07 00:54 SW 7 0.00 NULL NULL 12.2 11.1 93% 75.62 1008.0
06 23:54 SW 11 0.00 NULL NULL 12.8 11.7 93% 75.59 1007.8
06 22:54 SW 13 G 35 0.00 NULL NULL 11.7 11.1 96% 75.59 1007.9
06 21:54 SW 17 G 33 0.00 NULL NULL 11.7 11.1 96% 75.67 1008.6
06 20:54 SW 17 G 37 0.00 NULL NULL 12.2 11.1 93% 75.69 1008.9
06 19:54 S 17 G 37 0.00 NULL NULL 12.8 11.7 13.9 11.7 93% 75.64 1008.5 0.2
06 18:54 S 19 G 30 0.00 NULL NULL 11.7 11.1 96% 75.64 1008.5 0.03
06 17:54 S 17 G 41 0.00 NULL NULL 12.2 11.7 97% 75.67 1008.6 0.15
06 16:54 S 19 G 37 0.00 NULL NULL 12.8 10.6 87% 75.69 1008.9 0.03
06 15:54 S 19 G 35 0.00 NULL NULL 12.8 11.1 90% 75.69 1009.2 0.03
06 14:54 S 19 G 44 0.00 NULL NULL 12.8 10.6 87% 75.77 1010.1
06 13:54 S 17 G 39 0.00 NULL NULL 13.9 10.6 15 12.8 81% 75.82 1010.8
06 12:54 S 20 G 44 0.00 NULL NULL 13.9 10.6 81% 75.87 1011.5
06 11:54 S 20 G 46 0.00 NULL NULL 13.9 10.6 81% 75.92 1012.0
06 10:54 S 22 G 48 0.00 NULL NULL 14.4 11.1 81% 75.92 1012.2
06 09:54 S 22 G 48 0.00 NULL NULL 14.4 11.1 81% 75.92 1012.1
06 08:54 S 22 G 44 0.00 NULL NULL 13.9 10.6 81% 75.95 1012.5
06 07:54 S 19 G 41 0.00 NULL NULL 12.8 10.6 13.3 11.7 87% 75.95 1012.4
06 06:54 S 17 G 33 0.00 NULL NULL 11.7 10.6 93% 75.95 1012.6
06 05:54 S 19 G 37 0.00 NULL NULL 11.7 10.6 93% 75.95 1012.3
06 04:54 S 15 G 39 0.00 NULL NULL 12.2 10.6 90% 75.97 1012.8
06 03:54 S 20 G 39 0.00 NULL NULL 12.8 11.1 90% 75.97 1012.9
06 02:54 SW 17 G 41 0.00 NULL NULL 12.8 11.1 90% 75.97 1012.8
06 01:54 S 20 G 43 0.00 NULL NULL 12.8 11.1 13.3 12.2 90% 75.97 1012.7
06 00:54 S 20 G 46 0.00 NULL NULL 12.8 10.6 87% 76 1013.0
05 23:54 S 20 G 46 0.00 NULL NULL 12.8 10.6 87% 76 1013.1
05 22:54 S 20 G 44 0.00 NULL NULL 12.8 10.6 87% 76 1013.0
05 21:54 S 19 G 44 0.00 NULL NULL 13.3 10 81% 75.97 1012.8
05 20:54 SW 19 G 50 0.00 NULL NULL 12.8 9.4 80% 75.95 1012.4
05 19:54 S 22 G 52 0.00 NULL NULL 13.3 9.4 14.4 13.3 77% 75.87 1011.4
05 18:54 S 22 G 52 0.00 NULL NULL 13.3 9.4 77% 75.84 1011.0
05 17:54 S 26 G 54 0.00 NULL NULL 13.9 9.4 74% 75.82 1010.8
05 16:54 S 24 G 54 0.00 NULL NULL 13.3 9.4 77% 75.79 1010.5
05 15:54 S 22 G 48 0.00 NULL NULL 13.9 9.4 74% 75.82 1010.9
05 14:54 S 20 G 54 0.00 NULL NULL 14.4 10 75% 75.87 1011.4
05 13:54 S 19 G 41 0.00 NULL NULL 14.4 10 14.4 12.8 75% 75.9 1011.9
05 12:54 S 17 G 41 0.00 NULL NULL 14.4 10 75% 75.92 1012.2
05 11:54 SW 17 G 35 0.00 NULL NULL 14.4 10 75% 75.97 1012.8
05 10:54 S 20 G 43 0.00 NULL NULL 13.9 10 78% 75.97 1012.9
05 09:54 SW 20 G 50 0.00 NULL NULL 13.3 10 81% 75.95 1012.5
05 08:54 S 15 0.00 NULL NULL 13.9 10 78% 75.97 1012.7
05 07:54 SW 15 G 33 0.00 NULL NULL 12.8 10 12.8 10.6 83% 75.95 1012.5
05 06:54 S 15 0.00 NULL NULL 11.1 9.4 89% 75.92 1012.2
05 05:54 SW 13 0.00 NULL NULL 10.6 8.9 89% 75.9 1011.7
05 04:54 S 13 0.00 NULL NULL 10.6 8.9 89% 75.87 1011.5
05 03:54 S 15 0.00 NULL NULL 11.1 8.9 86% 75.9 1011.8
05 02:54 SW 15 0.00 NULL NULL 11.1 8.9 86% 75.9 1011.8
05 01:54 SW 15 0.00 NULL NULL 11.1 8.9 11.1 10.6 86% 75.95 1012.4
05 00:54 SW 13 0.00 NULL NULL 10.6 8.9 89% 75.95 1012.5
04 23:54 S 13 0.00 NULL NULL 10.6 8.3 86% 75.97 1012.8
04 22:54 S 11 0.00 NULL NULL 10.6 8.3 86% 76 1013.0
04 21:54 S 15 G 33 0.00 NULL NULL 10.6 8.3 86% 75.97 1012.9
04 20:54 SW 15 G 35 0.00 NULL NULL 10.6 8.3 86% 75.95 1012.4
04 19:54 S 19 G 39 0.00 NULL NULL 11.1 7.8 16.1 11.1 80% 75.87 1011.5
04 18:54 S 17 G 44 0.00 NULL NULL 11.7 7.2 74% 75.87 1011.3
04 17:54 S 19 G 46 0.00 NULL NULL 12.8 7.2 69% 75.87 1011.4
Date Time (edt) Wind (kph) Vis. (km) Weather Sky Cond. Air Dwpt Max. Min. Relative Humidity Wind Chill (°C) Heat Index (°C) altimeter (cm) sea level (mb) 1 hr 3 hr 6 hr
6 hour
Temperature (ºC) Pressure Precipitation (cm)